createdAt,value
2022-11-23T00:02:01.766Z,3.00
2022-11-23T00:04:32.677Z,2.97
2022-11-23T00:07:03.643Z,3.65
2022-11-23T00:09:32.100Z,3.45
2022-11-23T00:12:00.541Z,3.92
2022-11-23T00:14:28.862Z,3.50
2022-11-23T00:16:57.105Z,3.55
2022-11-23T00:19:27.628Z,3.95
2022-11-23T00:22:01.511Z,4.65
2022-11-23T00:24:29.885Z,4.43
2022-11-23T00:26:58.190Z,3.67
2022-11-23T00:29:29.831Z,2.70
2022-11-23T00:31:58.341Z,5.05
2022-11-23T00:34:26.568Z,3.55
2022-11-23T00:36:54.870Z,3.22
2022-11-23T00:39:29.461Z,4.20
2022-11-23T00:42:00.866Z,4.38
2022-11-23T00:44:32.115Z,4.20
2022-11-23T00:47:01.230Z,4.53
2022-11-23T00:49:32.193Z,5.00
2022-11-23T00:52:03.471Z,5.15
2022-11-23T00:54:31.791Z,2.97
2022-11-23T00:57:03.290Z,3.85
2022-11-23T00:59:32.004Z,4.18
2022-11-23T01:02:00.640Z,3.53
2022-11-23T01:04:34.123Z,3.90
2022-11-23T01:07:05.087Z,3.85
2022-11-23T01:09:37.971Z,3.00
2022-11-23T01:12:06.535Z,3.25
2022-11-23T01:14:35.022Z,3.65
2022-11-23T01:17:03.942Z,3.70
2022-11-23T01:19:32.455Z,4.88
2022-11-23T01:22:05.702Z,5.22
2022-11-23T01:24:36.821Z,6.28
2022-11-23T01:27:07.551Z,5.50
2022-11-23T01:29:36.856Z,5.53
2022-11-23T01:32:05.197Z,7.72
2022-11-23T01:34:39.596Z,4.15
2022-11-23T01:37:10.328Z,3.92
2022-11-23T01:39:48.504Z,5.13
2022-11-23T01:42:20.868Z,6.82
2022-11-23T01:44:52.946Z,7.75
2022-11-23T01:47:28.308Z,7.07
2022-11-23T01:49:57.396Z,5.82
2022-11-23T01:52:30.381Z,5.88
2022-11-23T01:55:08.086Z,6.30
2022-11-23T01:57:49.208Z,5.50
2022-11-23T02:00:17.844Z,6.35
2022-11-23T02:03:02.476Z,5.00
2022-11-23T02:05:39.416Z,6.00
2022-11-23T02:08:14.291Z,4.85
2022-11-23T02:10:45.201Z,6.05
2022-11-23T02:13:18.507Z,9.75
2022-11-23T02:15:52.664Z,7.63
2022-11-23T02:18:29.861Z,6.47
2022-11-23T02:21:10.281Z,6.25
2022-11-23T02:23:58.808Z,7.50
2022-11-23T02:26:38.306Z,6.03
2022-11-23T02:29:12.436Z,6.68
2022-11-23T02:31:42.568Z,9.07
2022-11-23T02:34:16.461Z,5.07
2022-11-23T02:37:03.466Z,5.82
2022-11-23T02:39:43.375Z,7.85
2022-11-23T02:42:15.235Z,6.90
2022-11-23T02:45:20.216Z,6.05
2022-11-23T02:47:50.185Z,5.53
2022-11-23T02:50:18.607Z,7.10
2022-11-23T02:52:46.893Z,9.73
2022-11-23T02:55:17.681Z,9.55
2022-11-23T02:57:46.009Z,13.73
2022-11-23T03:00:20.687Z,9.82
2022-11-23T03:05:17.447Z,13.32
2022-11-23T03:07:48.956Z,13.57
2022-11-23T03:10:17.381Z,13.23
2022-11-23T03:12:46.006Z,13.80
2022-11-23T03:15:22.916Z,11.98
2022-11-23T03:17:53.606Z,14.02
2022-11-23T03:20:25.367Z,12.30
2022-11-23T03:22:56.467Z,10.95
2022-11-23T03:25:27.342Z,10.25
2022-11-23T03:28:08.441Z,12.80
2022-11-23T03:30:39.877Z,11.48
2022-11-23T03:33:08.151Z,12.23
2022-11-23T03:35:36.566Z,12.05
2022-11-23T03:38:10.982Z,11.05
2022-11-23T03:40:39.786Z,12.68
2022-11-23T03:43:13.095Z,12.27
2022-11-23T03:45:42.102Z,11.10
2022-11-23T03:48:18.832Z,12.77
2022-11-23T03:50:50.196Z,16.08
2022-11-23T03:53:23.628Z,11.88
2022-11-23T03:55:51.921Z,10.52
2022-11-23T03:58:22.979Z,10.60
2022-11-23T04:00:51.339Z,10.95
2022-11-23T04:03:22.661Z,9.75
2022-11-23T04:06:00.741Z,10.18
2022-11-23T04:08:31.302Z,8.82
2022-11-23T04:11:05.023Z,11.05
2022-11-23T04:13:36.106Z,11.37
2022-11-23T04:16:16.226Z,10.57
2022-11-23T04:18:44.736Z,10.63
2022-11-23T04:21:18.191Z,12.88
2022-11-23T04:23:46.633Z,10.95
2022-11-23T04:26:18.258Z,7.80
2022-11-23T04:28:48.749Z,9.27
2022-11-23T04:31:20.133Z,9.40
2022-11-23T04:34:04.361Z,11.45
2022-11-23T04:36:34.709Z,10.75
2022-11-23T04:39:11.137Z,10.63
2022-11-23T04:41:45.001Z,7.68
2022-11-23T04:44:15.161Z,7.57
2022-11-23T04:46:57.439Z,9.70
2022-11-23T04:49:36.462Z,9.88
2022-11-23T04:52:07.515Z,9.73
2022-11-23T04:54:38.323Z,8.80
2022-11-23T04:57:14.336Z,8.90
2022-11-23T04:59:59.126Z,10.50
2022-11-23T05:02:32.390Z,8.60
2022-11-23T05:05:03.555Z,9.05
2022-11-23T05:07:32.304Z,10.45
2022-11-23T05:10:07.072Z,10.57
2022-11-23T05:15:16.745Z,10.20
2022-11-23T05:18:11.465Z,9.35
2022-11-23T05:20:42.670Z,12.48
2022-11-23T05:23:29.712Z,7.75
2022-11-23T05:26:14.731Z,8.68
2022-11-23T05:31:18.186Z,9.00
2022-11-23T05:33:52.420Z,10.00
2022-11-23T05:36:20.839Z,9.30
2022-11-23T05:38:51.796Z,10.52
2022-11-23T05:41:27.301Z,11.52
2022-11-23T05:44:04.562Z,8.60
2022-11-23T05:46:32.899Z,7.45
2022-11-23T05:49:03.903Z,11.65
2022-11-23T05:51:36.270Z,9.98
2022-11-23T05:54:16.270Z,8.05
2022-11-23T05:56:47.260Z,8.75
2022-11-23T05:59:18.294Z,10.68
2022-11-23T06:01:49.323Z,9.60
2022-11-23T06:04:20.705Z,8.60
2022-11-23T06:06:53.304Z,10.75
2022-11-23T06:09:22.187Z,9.90
2022-11-23T06:14:37.777Z,8.98
2022-11-23T06:17:08.336Z,9.95
2022-11-23T06:19:40.988Z,9.80
2022-11-23T06:22:10.631Z,9.45
2022-11-23T06:24:38.945Z,7.60
2022-11-23T06:27:16.621Z,10.45
2022-11-23T06:29:48.405Z,8.15
2022-11-23T06:32:24.575Z,8.82
2022-11-23T06:35:00.635Z,11.65
2022-11-23T06:37:29.480Z,9.32
2022-11-23T06:40:07.430Z,9.55
2022-11-23T06:42:40.671Z,10.10
2022-11-23T06:45:15.023Z,10.43
2022-11-23T06:47:44.055Z,9.48
2022-11-23T06:50:18.996Z,10.02
2022-11-23T06:52:47.460Z,9.30
2022-11-23T06:55:21.136Z,10.63
2022-11-23T06:57:57.505Z,8.77
2022-11-23T07:00:30.872Z,10.05
2022-11-23T07:03:06.527Z,9.57
2022-11-23T07:05:41.977Z,8.02
2022-11-23T07:08:19.270Z,7.28
2022-11-23T07:10:56.170Z,11.93
2022-11-23T07:13:26.462Z,11.25
2022-11-23T07:16:01.716Z,11.13
2022-11-23T07:18:30.818Z,8.63
2022-11-23T07:21:05.101Z,9.95
2022-11-23T07:23:37.801Z,9.95
2022-11-23T07:26:08.780Z,11.57
2022-11-23T07:28:39.495Z,8.98
2022-11-23T07:31:08.101Z,8.10
2022-11-23T07:33:36.551Z,10.38
2022-11-23T07:36:17.941Z,10.85
2022-11-23T07:38:51.916Z,9.98
2022-11-23T07:41:29.755Z,13.07
2022-11-23T07:44:05.307Z,12.45
2022-11-23T07:46:46.002Z,10.55
2022-11-23T07:49:21.711Z,10.35
2022-11-23T07:51:55.047Z,9.88
2022-11-23T07:54:46.433Z,10.63
2022-11-23T07:57:25.735Z,11.02
2022-11-23T07:59:57.131Z,11.15
2022-11-23T08:02:36.463Z,10.48
2022-11-23T08:05:13.871Z,9.90
2022-11-23T08:07:46.049Z,8.23
2022-11-23T08:10:17.847Z,10.98
2022-11-23T08:12:51.870Z,8.48
2022-11-23T08:15:27.453Z,10.73
2022-11-23T08:18:23.491Z,11.50
2022-11-23T08:20:56.593Z,9.52
2022-11-23T08:23:26.672Z,12.33
2022-11-23T08:26:02.180Z,9.05
2022-11-23T08:28:46.881Z,10.45
2022-11-23T08:31:29.646Z,11.45
2022-11-23T08:34:05.873Z,11.23
2022-11-23T08:36:47.716Z,8.63
2022-11-23T08:39:26.950Z,9.75
2022-11-23T08:41:57.850Z,10.27
2022-11-23T08:44:26.205Z,10.05
2022-11-23T08:46:56.527Z,10.35
2022-11-23T08:49:29.861Z,8.55
2022-11-23T08:52:04.098Z,10.60
2022-11-23T08:54:38.756Z,9.55
2022-11-23T08:59:41.903Z,11.13
2022-11-23T09:02:22.640Z,12.70
2022-11-23T09:04:55.065Z,10.48
2022-11-23T09:07:26.410Z,12.70
2022-11-23T09:10:02.598Z,11.45
2022-11-23T09:12:34.181Z,11.43
2022-11-23T09:15:02.519Z,10.05
2022-11-23T09:17:38.164Z,10.90
2022-11-23T09:20:10.984Z,11.20
2022-11-23T09:23:07.954Z,10.93
2022-11-23T09:25:39.291Z,12.70
2022-11-23T09:28:27.489Z,11.18
2022-11-23T09:31:17.397Z,11.55
2022-11-23T09:33:53.965Z,11.10
2022-11-23T09:36:27.618Z,9.85
2022-11-23T09:38:59.936Z,9.60
2022-11-23T09:41:55.051Z,10.68
2022-11-23T09:44:53.225Z,10.52
2022-11-23T09:47:47.786Z,13.27
2022-11-23T09:50:50.875Z,12.20
2022-11-23T09:53:51.630Z,10.60
2022-11-23T09:57:01.252Z,9.38
2022-11-23T09:59:48.741Z,9.10
2022-11-23T10:02:43.151Z,10.32
2022-11-23T10:05:28.461Z,10.30
2022-11-23T10:09:12.449Z,11.55
2022-11-23T10:11:49.956Z,8.70
2022-11-23T10:14:34.598Z,9.90
2022-11-23T10:17:33.902Z,10.20
2022-11-23T10:20:37.019Z,8.65
2022-11-23T10:23:17.157Z,8.90
2022-11-23T10:25:57.656Z,9.85
2022-11-23T10:28:37.486Z,10.18
2022-11-23T10:31:19.347Z,13.20
2022-11-23T10:34:17.381Z,8.68
2022-11-23T10:36:53.537Z,8.23
2022-11-23T10:39:40.722Z,10.65
2022-11-23T10:42:30.975Z,10.98
2022-11-23T10:45:09.661Z,9.70
2022-11-23T10:48:00.367Z,9.43
2022-11-23T10:50:38.645Z,8.45
2022-11-23T10:53:30.028Z,8.00
2022-11-23T10:56:12.403Z,9.68
2022-11-23T10:58:53.069Z,9.25
2022-11-23T11:01:30.600Z,9.27
2022-11-23T11:04:11.145Z,9.07
2022-11-23T11:06:46.047Z,8.63
2022-11-23T11:09:37.091Z,10.35
2022-11-23T11:12:20.580Z,10.00
2022-11-23T11:16:28.359Z,11.55
2022-11-23T11:18:23.460Z,7.47
2022-11-23T11:21:05.715Z,11.52
2022-11-23T11:23:43.311Z,8.68
2022-11-23T11:26:39.543Z,8.90
2022-11-23T11:29:27.591Z,9.98
2022-11-23T11:32:07.939Z,9.95
2022-11-23T11:36:15.284Z,7.10
2022-11-23T11:37:53.858Z,9.27
2022-11-23T11:41:08.656Z,8.93
2022-11-23T11:43:50.661Z,10.10
2022-11-23T11:46:32.981Z,7.25
2022-11-23T11:49:18.175Z,7.93
2022-11-23T11:54:37.072Z,8.98
2022-11-23T11:57:25.238Z,7.88
2022-11-23T12:00:16.910Z,8.02
2022-11-23T12:02:58.716Z,7.90
2022-11-23T12:05:43.021Z,8.88
2022-11-23T12:08:22.818Z,8.93
2022-11-23T12:11:04.396Z,9.20
2022-11-23T12:13:50.219Z,7.85
2022-11-23T12:17:24.940Z,8.15
2022-11-23T12:20:24.109Z,7.40
2022-11-23T12:23:31.783Z,8.70
2022-11-23T12:26:25.541Z,11.23
2022-11-23T12:29:22.977Z,11.77
2022-11-23T12:32:30.457Z,7.95
2022-11-23T12:35:28.951Z,8.85
2022-11-23T12:38:06.505Z,8.57
2022-11-23T12:41:09.933Z,7.47
2022-11-23T12:47:19.960Z,6.68
2022-11-23T12:50:17.499Z,7.88
2022-11-23T12:53:23.186Z,6.97
2022-11-23T12:56:38.354Z,13.70
2022-11-23T12:59:17.462Z,6.80
2022-11-23T13:02:00.940Z,8.30
2022-11-23T13:05:03.627Z,8.13
2022-11-23T13:07:37.534Z,9.00
2022-11-23T13:11:00.255Z,6.40
2022-11-23T13:13:54.164Z,7.43
2022-11-23T13:17:03.886Z,7.93
2022-11-23T13:20:11.937Z,7.97
2022-11-23T13:22:54.831Z,8.45
2022-11-23T13:25:38.357Z,8.32
2022-11-23T13:31:44.541Z,8.90
2022-11-23T13:35:00.534Z,6.15
2022-11-23T13:37:36.826Z,6.50
2022-11-23T13:40:31.620Z,7.22
2022-11-23T13:43:13.189Z,5.25
2022-11-23T13:46:21.899Z,8.18
2022-11-23T13:49:11.221Z,7.30
2022-11-23T13:51:51.748Z,7.05
2022-11-23T13:54:37.156Z,8.15
2022-11-23T13:57:43.069Z,6.90
2022-11-23T14:03:49.842Z,5.32
2022-11-23T14:06:29.759Z,6.15
2022-11-23T14:09:31.577Z,5.97
2022-11-23T14:12:08.385Z,6.28
2022-11-23T14:15:12.920Z,6.25
2022-11-23T14:18:18.521Z,6.10
2022-11-23T14:21:33.751Z,6.55
2022-11-23T14:24:33.975Z,6.22
2022-11-23T14:27:50.905Z,6.45
2022-11-23T14:31:00.061Z,6.85
2022-11-23T14:34:44.763Z,7.22
2022-11-23T14:37:51.497Z,4.95
2022-11-23T14:43:25.810Z,7.18
2022-11-23T14:46:10.567Z,6.00
2022-11-23T14:48:43.841Z,7.07
2022-11-23T14:51:27.960Z,8.63
2022-11-23T14:54:29.893Z,7.70
2022-11-23T14:57:34.456Z,5.88
2022-11-23T15:00:33.059Z,7.00
2022-11-23T15:06:30.232Z,5.38
2022-11-23T15:10:03.260Z,7.43
2022-11-23T15:13:01.269Z,7.75
2022-11-23T15:15:40.384Z,7.18
2022-11-23T15:18:39.892Z,8.00
2022-11-23T15:21:15.810Z,5.28
2022-11-23T15:24:01.747Z,9.32
2022-11-23T15:27:56.709Z,7.13
2022-11-23T15:31:17.413Z,6.75
2022-11-23T15:33:13.614Z,6.60
2022-11-23T15:35:45.222Z,7.47
2022-11-23T15:38:51.447Z,7.55
2022-11-23T15:41:42.528Z,6.30
2022-11-23T15:44:44.968Z,5.88
2022-11-23T15:47:34.501Z,8.27
2022-11-23T15:50:37.028Z,6.55
2022-11-23T15:53:17.812Z,7.95
2022-11-23T15:56:42.642Z,6.57
2022-11-23T15:59:45.042Z,8.52
2022-11-23T16:02:44.415Z,12.05
2022-11-23T16:05:51.783Z,8.68
2022-11-23T16:08:48.649Z,9.95
2022-11-23T16:11:26.803Z,8.13
2022-11-23T16:14:30.509Z,8.52
2022-11-23T16:17:40.683Z,8.43
2022-11-23T16:20:34.685Z,9.00
2022-11-23T16:23:19.622Z,8.68
2022-11-23T16:26:14.968Z,8.38
2022-11-23T16:29:03.056Z,9.65
2022-11-23T16:31:49.619Z,8.68
2022-11-23T16:34:34.360Z,9.48
2022-11-23T16:37:28.363Z,9.75
2022-11-23T16:40:01.264Z,9.57
2022-11-23T16:42:48.442Z,7.95
2022-11-23T16:45:19.921Z,9.50
2022-11-23T16:48:09.697Z,8.73
2022-11-23T16:51:05.781Z,9.98
2022-11-23T16:54:08.214Z,9.88
2022-11-23T16:56:37.090Z,9.82
2022-11-23T16:59:13.319Z,13.43
2022-11-23T17:01:56.881Z,10.65
2022-11-23T17:04:35.659Z,11.70
2022-11-23T17:07:16.505Z,10.52
2022-11-23T17:10:00.445Z,12.38
2022-11-23T17:12:39.848Z,11.00
2022-11-23T17:15:53.065Z,10.88
2022-11-23T17:18:25.485Z,10.20
2022-11-23T17:21:06.356Z,12.48
2022-11-23T17:23:40.795Z,12.68
2022-11-23T17:26:24.518Z,12.23
2022-11-23T17:29:13.182Z,12.88
2022-11-23T17:31:47.098Z,12.75
2022-11-23T17:34:42.336Z,11.43
2022-11-23T17:37:31.461Z,13.10
2022-11-23T17:40:03.151Z,10.85
2022-11-23T17:42:34.407Z,11.48
2022-11-23T17:45:09.327Z,11.85
2022-11-23T17:47:53.007Z,13.93
2022-11-23T17:50:25.154Z,11.60
2022-11-23T17:52:53.535Z,13.93
2022-11-23T17:55:24.407Z,12.23
2022-11-23T17:57:57.861Z,13.82
2022-11-23T18:00:33.109Z,12.95
2022-11-23T18:03:04.746Z,14.60
2022-11-23T18:05:41.845Z,13.02
2022-11-23T18:08:10.847Z,14.00
2022-11-23T18:10:40.868Z,12.05
2022-11-23T18:13:31.111Z,16.38
2022-11-23T18:16:02.541Z,13.63
2022-11-23T18:18:36.901Z,14.57
2022-11-23T18:23:49.708Z,11.73
2022-11-23T18:26:27.942Z,10.70
2022-11-23T18:28:59.110Z,11.88
2022-11-23T18:31:32.190Z,10.93
2022-11-23T18:34:06.142Z,11.02
2022-11-23T18:36:34.628Z,7.97
2022-11-23T18:39:13.176Z,10.45
2022-11-23T18:41:47.555Z,7.82
2022-11-23T18:44:18.971Z,7.95
2022-11-23T18:46:51.135Z,8.02
2022-11-23T18:49:28.029Z,9.93
2022-11-23T18:52:02.157Z,8.55
2022-11-23T18:54:35.919Z,7.57
2022-11-23T18:57:04.256Z,8.87
2022-11-23T18:59:57.013Z,9.43
2022-11-23T19:02:30.817Z,8.85
2022-11-23T19:05:01.842Z,7.65
2022-11-23T19:07:30.490Z,8.57
2022-11-23T19:10:04.247Z,8.18
2022-11-23T19:12:35.731Z,8.67
2022-11-23T19:15:10.454Z,9.00
2022-11-23T19:17:53.344Z,7.72
2022-11-23T19:20:28.515Z,7.47
2022-11-23T19:22:57.630Z,7.72
2022-11-23T19:25:32.512Z,7.80
2022-11-23T19:28:02.189Z,9.13
2022-11-23T19:30:33.061Z,8.32
2022-11-23T19:33:04.320Z,8.25
2022-11-23T19:35:40.149Z,7.43
2022-11-23T19:38:17.674Z,6.85
2022-11-23T19:40:54.669Z,6.78
2022-11-23T19:43:25.667Z,7.80
2022-11-23T19:46:01.245Z,10.20
2022-11-23T19:48:36.975Z,7.80
2022-11-23T19:51:12.276Z,8.70
2022-11-23T19:53:44.031Z,6.22
2022-11-23T19:56:21.047Z,7.50
2022-11-23T19:58:53.084Z,7.28
2022-11-23T20:01:31.929Z,8.52
2022-11-23T20:04:10.020Z,7.63
2022-11-23T20:06:43.142Z,7.95
2022-11-23T20:09:22.000Z,7.03
2022-11-23T20:11:51.466Z,7.22
2022-11-23T20:14:20.845Z,12.70
2022-11-23T20:16:51.608Z,6.90
2022-11-23T20:19:19.945Z,5.95
2022-11-23T20:21:51.549Z,6.28
2022-11-23T20:24:24.567Z,6.55
2022-11-23T20:26:55.985Z,6.28
2022-11-23T20:29:27.072Z,6.15
2022-11-23T20:31:57.925Z,7.97
2022-11-23T20:34:28.708Z,7.25
2022-11-23T20:36:57.066Z,5.97
2022-11-23T20:39:27.836Z,8.88
2022-11-23T20:41:56.201Z,6.82
2022-11-23T20:44:32.297Z,6.85
2022-11-23T20:47:03.267Z,6.10
2022-11-23T20:49:34.578Z,6.90
2022-11-23T20:52:03.174Z,6.22
2022-11-23T20:54:33.013Z,6.20
2022-11-23T20:57:03.683Z,5.97
2022-11-23T20:59:33.790Z,4.85
2022-11-23T21:02:06.627Z,6.65
2022-11-23T21:04:36.995Z,4.88
2022-11-23T21:07:05.587Z,6.28
2022-11-23T21:09:36.982Z,6.55
2022-11-23T21:12:24.674Z,5.40
2022-11-23T21:14:54.021Z,5.97
2022-11-23T21:17:22.346Z,5.40
2022-11-23T21:19:51.870Z,6.28
2022-11-23T21:22:20.257Z,4.45
2022-11-23T21:24:53.396Z,3.85
2022-11-23T21:27:25.829Z,6.70
2022-11-23T21:29:54.286Z,4.35
2022-11-23T21:32:22.940Z,4.32
2022-11-23T21:34:59.674Z,3.45
2022-11-23T21:37:33.672Z,5.82
2022-11-23T21:40:02.127Z,4.00
2022-11-23T21:42:35.658Z,3.35
2022-11-23T21:45:07.645Z,3.60
2022-11-23T21:47:36.460Z,5.05
2022-11-23T21:50:04.888Z,4.80
2022-11-23T21:52:33.172Z,3.58
2022-11-23T21:55:02.997Z,3.42
2022-11-23T21:57:35.819Z,3.65
2022-11-23T22:00:04.855Z,5.15
2022-11-23T22:02:35.532Z,4.45
2022-11-23T22:05:09.550Z,3.80
2022-11-23T22:07:37.964Z,3.55
2022-11-23T22:10:10.776Z,4.10
2022-11-23T22:12:39.839Z,4.28
2022-11-23T22:15:11.191Z,3.20
2022-11-23T22:17:44.381Z,2.40
2022-11-23T22:20:14.646Z,3.00
2022-11-23T22:22:49.352Z,2.60
2022-11-23T22:25:17.847Z,3.97
2022-11-23T22:27:46.180Z,2.65
2022-11-23T22:30:16.419Z,3.67
2022-11-23T22:32:44.896Z,3.50
2022-11-23T22:35:19.245Z,3.67
2022-11-23T22:37:48.419Z,3.00
2022-11-23T22:40:17.387Z,3.53
2022-11-23T22:42:45.668Z,4.15
2022-11-23T22:45:16.902Z,2.20
2022-11-23T22:47:45.245Z,3.88
2022-11-23T22:50:13.771Z,4.07
2022-11-23T22:52:42.047Z,3.47
2022-11-23T22:55:10.796Z,4.28
2022-11-23T22:57:39.727Z,2.90
2022-11-23T23:00:11.759Z,2.80
2022-11-23T23:02:40.242Z,3.55
2022-11-23T23:05:09.044Z,3.17
2022-11-23T23:07:37.447Z,3.00
2022-11-23T23:10:06.046Z,3.13
2022-11-23T23:12:37.126Z,4.50
2022-11-23T23:15:14.826Z,4.28
2022-11-23T23:17:43.150Z,3.92
2022-11-23T23:20:13.023Z,3.80
2022-11-23T23:22:43.666Z,3.38
2022-11-23T23:25:15.466Z,5.95
2022-11-23T23:27:43.996Z,3.97
2022-11-23T23:30:18.179Z,4.05
2022-11-23T23:32:49.063Z,4.60
2022-11-23T23:35:17.385Z,3.13
2022-11-23T23:37:45.671Z,5.35
2022-11-23T23:40:14.018Z,3.70
2022-11-23T23:42:42.280Z,4.38
2022-11-23T23:45:11.284Z,3.72
2022-11-23T23:47:44.470Z,3.28
2022-11-23T23:50:12.756Z,4.30
2022-11-23T23:52:41.595Z,2.72
2022-11-23T23:55:13.171Z,3.28
2022-11-23T23:57:44.589Z,2.95
